createdAt,value
2022-12-03T00:00:42.787Z,79.11
2022-12-03T00:03:09.456Z,79.55
2022-12-03T00:05:36.115Z,79.88
2022-12-03T00:08:02.981Z,79.49
2022-12-03T00:10:29.583Z,80.04
2022-12-03T00:12:58.961Z,79.71
2022-12-03T00:15:25.585Z,79.66
2022-12-03T00:18:01.307Z,79.13
2022-12-03T00:20:28.019Z,80.25
2022-12-03T00:22:54.618Z,79.70
2022-12-03T00:25:21.148Z,79.43
2022-12-03T00:27:49.881Z,79.39
2022-12-03T00:30:16.846Z,80.21
2022-12-03T00:32:45.640Z,79.94
2022-12-03T00:35:12.304Z,79.40
2022-12-03T00:37:38.923Z,79.96
2022-12-03T00:40:06.738Z,79.89
2022-12-03T00:42:33.323Z,79.47
2022-12-03T00:44:59.891Z,80.09
2022-12-03T00:47:28.882Z,79.67
2022-12-03T00:49:55.549Z,80.28
2022-12-03T00:52:22.138Z,79.81
2022-12-03T00:54:48.931Z,80.02
2022-12-03T00:57:15.494Z,80.18
2022-12-03T00:59:42.088Z,79.57
2022-12-03T01:02:09.201Z,80.01
2022-12-03T01:04:36.005Z,79.85
2022-12-03T01:07:04.856Z,80.31
2022-12-03T01:09:31.501Z,80.17
2022-12-03T01:11:58.139Z,80.50
2022-12-03T01:14:24.830Z,79.90
2022-12-03T01:16:51.614Z,79.61
2022-12-03T01:19:19.408Z,80.30
2022-12-03T01:21:49.542Z,80.14
2022-12-03T01:24:21.613Z,79.57
2022-12-03T01:26:48.238Z,80.01
2022-12-03T01:29:16.158Z,80.28
2022-12-03T01:32:03.872Z,79.75
2022-12-03T01:34:30.446Z,79.65
2022-12-03T01:36:57.145Z,79.40
2022-12-03T01:39:23.756Z,79.98
2022-12-03T01:41:52.526Z,79.62
2022-12-03T01:44:24.449Z,79.94
2022-12-03T01:46:54.209Z,79.96
2022-12-03T01:49:25.301Z,79.48
2022-12-03T01:51:55.362Z,79.82
2022-12-03T01:54:26.865Z,79.91
2022-12-03T01:56:55.308Z,79.63
2022-12-03T01:59:29.346Z,79.83
2022-12-03T02:01:58.135Z,80.25
2022-12-03T02:04:25.498Z,79.99
2022-12-03T02:06:52.383Z,79.93
2022-12-03T02:09:18.913Z,79.21
2022-12-03T02:11:49.609Z,79.97
2022-12-03T02:14:20.116Z,79.61
2022-12-03T02:16:46.756Z,79.90
2022-12-03T02:19:27.950Z,79.37
2022-12-03T02:22:03.920Z,79.45
2022-12-03T02:24:53.859Z,79.80
2022-12-03T02:27:20.603Z,79.86
2022-12-03T02:29:47.177Z,80.20
2022-12-03T02:32:13.722Z,80.20
2022-12-03T02:34:45.478Z,79.69
2022-12-03T02:37:17.578Z,79.68
2022-12-03T02:39:48.909Z,79.87
2022-12-03T02:42:34.544Z,79.94
2022-12-03T02:45:24.060Z,79.85
2022-12-03T02:47:59.144Z,79.48
2022-12-03T02:50:30.487Z,80.09
2022-12-03T02:52:59.986Z,79.83
2022-12-03T02:55:33.453Z,80.29
2022-12-03T02:58:04.843Z,80.31
2022-12-03T03:00:32.109Z,79.95
2022-12-03T03:02:59.059Z,80.09
2022-12-03T03:05:25.706Z,79.45
2022-12-03T03:07:52.614Z,79.58
2022-12-03T03:10:23.658Z,80.24
2022-12-03T03:12:54.204Z,79.99
2022-12-03T03:15:21.549Z,79.83
2022-12-03T03:17:48.278Z,80.00
2022-12-03T03:20:15.427Z,80.00
2022-12-03T03:22:43.146Z,80.08
2022-12-03T03:25:13.435Z,79.81
2022-12-03T03:27:41.839Z,80.26
2022-12-03T03:30:09.843Z,80.18
2022-12-03T03:32:37.399Z,80.34
2022-12-03T03:35:06.837Z,79.83
2022-12-03T03:37:33.713Z,79.83
2022-12-03T03:40:00.306Z,79.63
2022-12-03T03:42:27.196Z,79.93
2022-12-03T03:44:54.009Z,79.83
2022-12-03T03:47:23.725Z,79.42
2022-12-03T03:49:51.018Z,80.21
2022-12-03T03:52:19.774Z,79.89
2022-12-03T03:54:47.247Z,79.77
2022-12-03T03:57:14.388Z,80.12
2022-12-03T03:59:41.445Z,79.59
2022-12-03T04:02:17.688Z,79.73
2022-12-03T04:04:44.593Z,79.89
2022-12-03T04:07:11.115Z,80.12
2022-12-03T04:09:40.678Z,79.83
2022-12-03T04:12:25.733Z,79.54
2022-12-03T04:14:58.903Z,79.40
2022-12-03T04:17:25.643Z,79.74
2022-12-03T04:19:54.541Z,79.84
2022-12-03T04:22:39.891Z,80.40
2022-12-03T04:25:29.691Z,79.87
2022-12-03T04:28:14.805Z,80.08
2022-12-03T04:30:41.486Z,80.06
2022-12-03T04:33:26.711Z,79.12
2022-12-03T04:35:53.421Z,79.86
2022-12-03T04:38:19.993Z,79.59
2022-12-03T04:41:01.770Z,79.18
2022-12-03T04:43:29.606Z,79.61
2022-12-03T04:45:56.329Z,79.83
2022-12-03T04:48:22.936Z,79.76
2022-12-03T04:50:49.698Z,80.35
2022-12-03T04:53:19.060Z,79.95
2022-12-03T04:55:45.628Z,80.45
2022-12-03T04:58:14.438Z,79.72
2022-12-03T05:00:41.020Z,80.06
2022-12-03T05:03:07.652Z,80.15
2022-12-03T05:05:34.207Z,80.32
2022-12-03T05:08:00.869Z,79.87
2022-12-03T05:10:27.516Z,80.00
2022-12-03T05:12:56.647Z,79.70
2022-12-03T05:15:23.222Z,80.63
2022-12-03T05:17:52.106Z,80.26
2022-12-03T05:20:37.146Z,80.36
2022-12-03T05:23:03.763Z,79.85
2022-12-03T05:25:30.302Z,79.98
2022-12-03T05:27:56.905Z,79.75
2022-12-03T05:30:23.591Z,80.03
2022-12-03T05:32:50.189Z,80.07
2022-12-03T05:35:17.036Z,79.97
2022-12-03T05:37:43.635Z,80.64
2022-12-03T05:40:11.043Z,80.43
2022-12-03T05:42:57.114Z,80.29
2022-12-03T05:45:38.210Z,80.56
2022-12-03T05:48:09.503Z,80.33
2022-12-03T05:50:40.323Z,80.42
2022-12-03T05:53:07.073Z,80.14
2022-12-03T05:55:33.654Z,80.22
2022-12-03T05:58:00.323Z,80.36
2022-12-03T06:00:42.433Z,80.08
2022-12-03T06:03:12.049Z,80.61
2022-12-03T06:05:38.758Z,80.18
2022-12-03T06:08:05.385Z,80.28
2022-12-03T06:10:32.539Z,80.52
2022-12-03T06:12:59.145Z,80.11
2022-12-03T06:15:27.921Z,79.97
2022-12-03T06:17:54.539Z,80.53
2022-12-03T06:20:21.502Z,79.91
2022-12-03T06:22:48.364Z,80.77
2022-12-03T06:25:17.741Z,80.57
2022-12-03T06:27:44.726Z,80.47
2022-12-03T06:30:12.563Z,79.99
2022-12-03T06:32:39.138Z,80.84
2022-12-03T06:35:05.824Z,80.47
2022-12-03T06:37:34.654Z,80.83
2022-12-03T06:40:03.883Z,80.18
2022-12-03T06:42:30.487Z,80.98
2022-12-03T06:44:57.142Z,80.35
2022-12-03T06:47:23.927Z,80.45
2022-12-03T06:49:50.549Z,80.41
2022-12-03T06:52:17.087Z,80.52
2022-12-03T06:54:43.739Z,81.03
2022-12-03T06:57:11.315Z,80.00
2022-12-03T06:59:38.326Z,80.99
2022-12-03T07:02:05.339Z,80.18
2022-12-03T07:04:34.152Z,80.26
2022-12-03T07:07:00.713Z,80.72
2022-12-03T07:09:29.777Z,80.29
2022-12-03T07:11:56.434Z,80.51
2022-12-03T07:14:23.070Z,80.39
2022-12-03T07:16:49.618Z,80.87
2022-12-03T07:19:16.805Z,80.28
2022-12-03T07:21:43.585Z,81.19
2022-12-03T07:24:10.964Z,81.21
2022-12-03T07:26:37.568Z,80.76
2022-12-03T07:29:04.149Z,80.94
2022-12-03T07:31:30.896Z,80.72
2022-12-03T07:33:57.539Z,80.66
2022-12-03T07:36:24.069Z,80.72
2022-12-03T07:38:50.657Z,80.41
2022-12-03T07:41:19.043Z,80.14
2022-12-03T07:43:47.367Z,80.38
2022-12-03T07:46:14.227Z,80.71
2022-12-03T07:48:40.784Z,80.70
2022-12-03T07:51:08.184Z,80.40
2022-12-03T07:53:36.214Z,80.31
2022-12-03T07:56:06.501Z,80.40
2022-12-03T07:58:33.114Z,80.23
2022-12-03T08:00:59.819Z,80.62
2022-12-03T08:03:26.555Z,80.51
2022-12-03T08:05:55.146Z,80.83
2022-12-03T08:08:21.804Z,80.52
2022-12-03T08:10:48.545Z,81.35
2022-12-03T08:13:16.934Z,80.58
2022-12-03T08:15:44.601Z,80.45
2022-12-03T08:18:21.441Z,80.26
2022-12-03T08:20:50.541Z,81.05
2022-12-03T08:23:24.211Z,80.95
2022-12-03T08:25:52.364Z,80.40
2022-12-03T08:28:26.771Z,80.47
2022-12-03T08:31:12.559Z,81.24
2022-12-03T08:33:42.052Z,81.30
2022-12-03T08:36:19.930Z,80.82
2022-12-03T08:38:55.772Z,80.99
2022-12-03T08:41:43.234Z,80.76
2022-12-03T08:44:36.326Z,80.57
2022-12-03T08:47:08.874Z,80.52
2022-12-03T08:49:39.288Z,80.45
2022-12-03T08:52:33.285Z,80.64
2022-12-03T08:55:05.346Z,80.93
2022-12-03T08:57:34.617Z,81.02
2022-12-03T09:00:12.102Z,81.69
2022-12-03T09:02:48.549Z,81.73
2022-12-03T09:05:29.367Z,81.43
2022-12-03T09:07:56.017Z,81.52
2022-12-03T09:10:22.555Z,81.20
2022-12-03T09:12:49.057Z,80.84
2022-12-03T09:15:15.789Z,81.31
2022-12-03T09:17:42.435Z,81.03
2022-12-03T09:20:09.483Z,81.21
2022-12-03T09:22:36.257Z,81.36
2022-12-03T09:25:02.857Z,80.65
2022-12-03T09:27:29.377Z,80.79
2022-12-03T09:29:58.155Z,80.98
2022-12-03T09:32:24.890Z,81.54
2022-12-03T09:34:51.869Z,81.06
2022-12-03T09:37:18.717Z,81.50
2022-12-03T09:39:45.269Z,81.69
2022-12-03T09:42:12.076Z,81.12
2022-12-03T09:44:39.019Z,81.27
2022-12-03T09:47:06.908Z,80.59
2022-12-03T09:49:37.145Z,80.58
2022-12-03T09:52:05.808Z,80.80
2022-12-03T09:54:35.076Z,80.76
2022-12-03T09:57:03.697Z,80.33
2022-12-03T09:59:33.508Z,80.99
2022-12-03T10:02:02.956Z,80.53
2022-12-03T10:04:29.887Z,80.22
2022-12-03T10:06:58.644Z,80.81
2022-12-03T10:09:28.546Z,81.14
2022-12-03T10:11:57.411Z,80.42
2022-12-03T10:14:24.782Z,80.37
2022-12-03T10:16:53.572Z,80.63
2022-12-03T10:19:26.577Z,80.65
2022-12-03T10:21:55.894Z,81.04
2022-12-03T10:24:33.485Z,80.44
2022-12-03T10:27:21.769Z,80.21
2022-12-03T10:29:56.588Z,80.62
2022-12-03T10:32:42.869Z,80.21
2022-12-03T10:35:15.712Z,80.36
2022-12-03T10:38:02.675Z,80.74
2022-12-03T10:40:32.631Z,80.79
2022-12-03T10:43:18.562Z,80.69
2022-12-03T10:46:12.839Z,80.64
2022-12-03T10:48:39.763Z,80.29
2022-12-03T10:51:09.540Z,80.36
2022-12-03T10:53:38.678Z,81.09
2022-12-03T10:56:07.520Z,80.94
2022-12-03T10:58:39.069Z,81.21
2022-12-03T11:01:26.540Z,80.23
2022-12-03T11:03:56.636Z,80.83
2022-12-03T11:06:23.662Z,81.41
2022-12-03T11:08:58.467Z,80.51
2022-12-03T11:11:29.647Z,81.42
2022-12-03T11:14:00.548Z,81.29
2022-12-03T11:16:42.010Z,81.44
2022-12-03T11:19:19.167Z,81.39
2022-12-03T11:22:06.982Z,80.57
2022-12-03T11:24:35.783Z,81.17
2022-12-03T11:27:02.317Z,81.04
2022-12-03T11:29:56.977Z,80.92
2022-12-03T11:32:38.699Z,80.72
2022-12-03T11:35:13.426Z,80.77
2022-12-03T11:37:40.227Z,80.97
2022-12-03T11:40:18.797Z,81.30
2022-12-03T11:42:47.576Z,80.66
2022-12-03T11:45:22.626Z,80.41
2022-12-03T11:47:58.520Z,80.14
2022-12-03T11:50:45.142Z,80.33
2022-12-03T11:53:20.243Z,80.22
2022-12-03T11:55:52.176Z,80.32
2022-12-03T11:58:25.850Z,80.06
2022-12-03T12:00:55.719Z,79.89
2022-12-03T12:03:32.877Z,80.32
2022-12-03T12:06:08.362Z,79.53
2022-12-03T12:08:41.061Z,79.88
2022-12-03T12:11:20.721Z,80.06
2022-12-03T12:13:47.179Z,80.34
2022-12-03T12:16:14.025Z,80.40
2022-12-03T12:18:55.049Z,79.81
2022-12-03T12:21:47.618Z,80.04
2022-12-03T12:24:47.011Z,80.08
2022-12-03T12:27:45.183Z,80.43
2022-12-03T12:30:19.934Z,80.14
2022-12-03T12:33:01.853Z,80.50
2022-12-03T12:35:32.988Z,80.09
2022-12-03T12:38:20.896Z,79.64
2022-12-03T12:40:49.439Z,80.53
2022-12-03T12:43:29.636Z,80.26
2022-12-03T12:46:13.515Z,79.91
2022-12-03T12:48:45.997Z,79.84
2022-12-03T12:51:18.858Z,80.15
2022-12-03T12:53:46.062Z,79.92
2022-12-03T12:56:24.626Z,79.68
2022-12-03T12:58:52.084Z,79.90
2022-12-03T13:01:31.749Z,79.52
2022-12-03T13:03:59.613Z,79.83
2022-12-03T13:06:28.605Z,79.12
2022-12-03T13:08:55.619Z,79.37
2022-12-03T13:11:45.724Z,79.38
2022-12-03T13:14:19.384Z,79.48
2022-12-03T13:16:47.728Z,79.46
2022-12-03T13:19:23.764Z,79.01
2022-12-03T13:21:56.488Z,78.83
2022-12-03T13:24:42.729Z,78.88
2022-12-03T13:27:18.349Z,79.21
2022-12-03T13:29:47.476Z,79.37
2022-12-03T13:32:18.599Z,78.76
2022-12-03T13:34:46.667Z,78.87
2022-12-03T13:37:23.346Z,79.72
2022-12-03T13:39:53.317Z,79.74
2022-12-03T13:42:39.264Z,79.37
2022-12-03T13:45:15.084Z,78.98
2022-12-03T13:48:08.566Z,79.76
2022-12-03T13:50:41.290Z,79.40
2022-12-03T13:53:20.041Z,79.26
2022-12-03T13:55:49.549Z,78.82
2022-12-03T13:58:16.271Z,79.28
2022-12-03T14:00:50.370Z,79.45
2022-12-03T14:03:17.591Z,79.36
2022-12-03T14:05:44.219Z,79.58
2022-12-03T14:08:10.863Z,79.58
2022-12-03T14:10:39.721Z,79.19
2022-12-03T14:13:06.342Z,79.75
2022-12-03T14:15:32.862Z,79.84
2022-12-03T14:17:59.436Z,79.06
2022-12-03T14:20:26.077Z,79.85
2022-12-03T14:22:57.739Z,79.78
2022-12-03T14:25:28.319Z,79.83
2022-12-03T14:27:54.897Z,79.71
2022-12-03T14:30:21.524Z,79.60
2022-12-03T14:32:50.631Z,79.98
2022-12-03T14:35:17.494Z,80.34
2022-12-03T14:37:46.344Z,79.98
2022-12-03T14:40:16.629Z,80.28
2022-12-03T14:42:47.800Z,79.54
2022-12-03T14:45:14.379Z,79.69
2022-12-03T14:47:40.965Z,79.55
2022-12-03T14:50:08.252Z,80.08
2022-12-03T14:52:34.899Z,79.52
2022-12-03T14:55:30.437Z,80.08
2022-12-03T15:00:55.603Z,80.25
2022-12-03T15:03:35.857Z,80.18
2022-12-03T15:06:02.473Z,80.33
2022-12-03T15:08:29.082Z,80.08
2022-12-03T15:10:55.719Z,80.42
2022-12-03T15:13:22.349Z,80.12
2022-12-03T15:15:48.888Z,80.11
2022-12-03T15:18:15.476Z,80.16
2022-12-03T15:20:42.115Z,80.00
2022-12-03T15:23:12.791Z,80.50
2022-12-03T15:25:40.991Z,80.30
2022-12-03T15:28:07.616Z,80.00
2022-12-03T15:30:36.854Z,79.80
2022-12-03T15:33:04.299Z,79.85
2022-12-03T15:35:31.126Z,80.42
2022-12-03T15:37:57.840Z,79.84
2022-12-03T15:40:25.647Z,80.54
2022-12-03T15:42:52.652Z,80.34
2022-12-03T15:45:19.423Z,79.96
2022-12-03T15:47:46.123Z,80.76
2022-12-03T15:50:14.183Z,80.80
2022-12-03T15:52:43.232Z,80.14
2022-12-03T15:55:10.702Z,80.39
2022-12-03T15:57:39.655Z,80.36
2022-12-03T16:00:07.298Z,80.08
2022-12-03T16:02:34.664Z,79.90
2022-12-03T16:05:04.748Z,80.36
2022-12-03T16:07:31.363Z,80.16
2022-12-03T16:09:57.956Z,80.62
2022-12-03T16:12:24.929Z,80.46
2022-12-03T16:14:51.640Z,80.81
2022-12-03T16:17:18.213Z,79.97
2022-12-03T16:19:45.319Z,81.10
2022-12-03T16:22:14.704Z,80.50
2022-12-03T16:24:41.498Z,80.49
2022-12-03T16:27:08.551Z,80.61
2022-12-03T16:29:37.587Z,81.18
2022-12-03T16:32:04.847Z,80.51
2022-12-03T16:34:31.426Z,80.94
2022-12-03T16:36:57.932Z,80.96
2022-12-03T16:39:24.627Z,81.11
2022-12-03T16:41:51.420Z,81.22
2022-12-03T16:44:31.494Z,81.24
2022-12-03T16:47:01.609Z,81.11
2022-12-03T16:49:28.600Z,80.72
2022-12-03T16:51:55.182Z,80.40
2022-12-03T16:54:24.331Z,81.32
2022-12-03T16:56:50.932Z,80.45
2022-12-03T16:59:17.508Z,80.35
2022-12-03T17:01:46.214Z,80.80
2022-12-03T17:04:12.841Z,81.36
2022-12-03T17:06:39.450Z,81.10
2022-12-03T17:09:06.094Z,81.02
2022-12-03T17:11:32.631Z,80.86
2022-12-03T17:13:59.211Z,81.35
2022-12-03T17:16:28.336Z,80.92
2022-12-03T17:18:54.933Z,80.64
2022-12-03T17:21:23.751Z,81.18
2022-12-03T17:23:51.072Z,81.33
2022-12-03T17:26:18.466Z,80.69
2022-12-03T17:28:45.912Z,81.16
2022-12-03T17:31:15.301Z,81.14
2022-12-03T17:33:42.027Z,81.42
2022-12-03T17:36:11.764Z,81.56
2022-12-03T17:38:39.513Z,81.28
2022-12-03T17:41:07.490Z,81.41
2022-12-03T17:43:34.102Z,81.24
2022-12-03T17:46:05.036Z,81.61
2022-12-03T17:48:31.740Z,81.55
2022-12-03T17:50:58.584Z,81.22
2022-12-03T17:53:27.728Z,81.52
2022-12-03T17:55:54.930Z,80.87
2022-12-03T17:58:23.851Z,81.37
2022-12-03T18:00:54.014Z,81.57
2022-12-03T18:03:23.848Z,81.54
2022-12-03T18:05:50.464Z,81.69
2022-12-03T18:08:17.192Z,81.54
2022-12-03T18:10:43.913Z,81.39
2022-12-03T18:13:10.482Z,81.47
2022-12-03T18:15:37.034Z,81.45
2022-12-03T18:18:03.831Z,81.70
2022-12-03T18:20:30.745Z,81.63
2022-12-03T18:22:59.236Z,81.44
2022-12-03T18:25:26.700Z,81.97
2022-12-03T18:27:53.233Z,81.72
2022-12-03T18:30:19.906Z,80.93
2022-12-03T18:32:46.574Z,81.28
2022-12-03T18:35:13.275Z,81.07
2022-12-03T18:37:40.081Z,81.51
2022-12-03T18:40:13.021Z,81.50
2022-12-03T18:42:44.731Z,81.24
2022-12-03T18:45:12.943Z,81.36
2022-12-03T18:47:39.655Z,81.30
2022-12-03T18:50:07.134Z,81.08
2022-12-03T18:52:33.893Z,81.23
2022-12-03T18:55:00.438Z,81.58
2022-12-03T18:57:27.075Z,81.72
2022-12-03T18:59:53.874Z,81.89
2022-12-03T19:02:54.184Z,81.37
2022-12-03T19:05:12.651Z,81.38
2022-12-03T19:07:39.317Z,81.35
2022-12-03T19:10:06.524Z,81.53
2022-12-03T19:12:35.976Z,81.28
2022-12-03T19:15:04.323Z,81.36
2022-12-03T19:17:31.243Z,81.61
2022-12-03T19:20:02.590Z,81.35
2022-12-03T19:22:29.335Z,81.25
2022-12-03T19:24:55.840Z,81.44
2022-12-03T19:27:22.415Z,81.49
2022-12-03T19:29:51.677Z,81.74
2022-12-03T19:32:18.395Z,81.89
2022-12-03T19:34:44.950Z,80.97
2022-12-03T19:37:11.625Z,81.63
2022-12-03T19:39:38.142Z,81.71
2022-12-03T19:42:04.930Z,81.54
2022-12-03T19:44:33.945Z,81.63
2022-12-03T19:47:02.667Z,81.69
2022-12-03T19:49:29.296Z,81.58
2022-12-03T19:51:58.325Z,81.37
2022-12-03T19:54:24.968Z,81.63
2022-12-03T19:56:51.593Z,81.30
2022-12-03T19:59:20.611Z,81.67
2022-12-03T20:01:47.384Z,81.91
2022-12-03T20:04:14.168Z,81.26
2022-12-03T20:06:40.822Z,81.23
2022-12-03T20:09:11.448Z,81.58
2022-12-03T20:11:39.479Z,81.46
2022-12-03T20:14:08.932Z,81.46
2022-12-03T20:16:36.173Z,81.22
2022-12-03T20:19:09.095Z,81.63
2022-12-03T20:21:36.878Z,81.62
2022-12-03T20:24:04.461Z,81.77
2022-12-03T20:26:31.688Z,81.83
2022-12-03T20:28:59.018Z,81.63
2022-12-03T20:31:28.726Z,81.61
2022-12-03T20:33:57.927Z,81.36
2022-12-03T20:36:25.630Z,82.04
2022-12-03T20:38:56.966Z,81.29
2022-12-03T20:41:23.879Z,80.97
2022-12-03T20:43:53.256Z,81.72
2022-12-03T20:46:22.824Z,81.70
2022-12-03T20:48:53.974Z,81.73
2022-12-03T20:51:22.294Z,81.77
2022-12-03T20:53:49.325Z,81.31
2022-12-03T20:56:27.228Z,82.17
2022-12-03T20:58:54.283Z,81.85
2022-12-03T21:01:26.459Z,81.64
2022-12-03T21:03:55.299Z,81.92
2022-12-03T21:06:23.513Z,81.38
2022-12-03T21:08:52.931Z,81.59
2022-12-03T21:11:24.244Z,81.96
2022-12-03T21:13:51.269Z,81.48
2022-12-03T21:16:39.467Z,81.79
2022-12-03T21:19:07.917Z,81.71
2022-12-03T21:21:35.511Z,81.50
2022-12-03T21:24:02.134Z,81.51
2022-12-03T21:26:28.816Z,81.85
2022-12-03T21:28:55.524Z,82.01
2022-12-03T21:31:26.047Z,81.54
2022-12-03T21:33:57.196Z,81.73
2022-12-03T21:36:24.663Z,81.85
2022-12-03T21:38:51.728Z,81.70
2022-12-03T21:41:20.924Z,82.14
2022-12-03T21:43:47.505Z,81.89
2022-12-03T21:47:09.146Z,81.52
2022-12-03T21:49:06.391Z,81.33
2022-12-03T21:51:33.349Z,81.92
2022-12-03T21:53:59.955Z,81.90
2022-12-03T21:56:26.537Z,81.56
2022-12-03T21:58:53.090Z,81.84
2022-12-03T22:01:23.808Z,81.55
2022-12-03T22:03:52.847Z,81.88
2022-12-03T22:06:20.227Z,81.60
2022-12-03T22:08:47.645Z,81.83
2022-12-03T22:11:20.574Z,81.89
2022-12-03T22:13:47.684Z,81.72
2022-12-03T22:16:19.599Z,82.35
2022-12-03T22:18:46.209Z,82.19
2022-12-03T22:21:15.496Z,81.76
2022-12-03T22:23:42.273Z,81.84
2022-12-03T22:26:12.784Z,81.96
2022-12-03T22:28:43.070Z,81.83
2022-12-03T22:31:10.058Z,82.10
2022-12-03T22:33:37.145Z,81.98
2022-12-03T22:36:14.682Z,82.23
2022-12-03T22:38:47.797Z,82.47
2022-12-03T22:41:19.232Z,82.30
2022-12-03T22:43:46.519Z,82.23
2022-12-03T22:46:13.511Z,81.74
2022-12-03T22:48:42.171Z,81.86
2022-12-03T22:51:22.750Z,82.12
2022-12-03T22:54:00.853Z,81.68
2022-12-03T22:56:29.623Z,82.36
2022-12-03T22:58:56.177Z,81.86
2022-12-03T23:01:33.873Z,82.14
2022-12-03T23:04:01.265Z,82.25
2022-12-03T23:06:28.516Z,81.83
2022-12-03T23:08:55.760Z,82.06
2022-12-03T23:11:25.005Z,82.25
2022-12-03T23:13:54.543Z,82.23
2022-12-03T23:16:27.490Z,81.97
2022-12-03T23:18:56.799Z,82.23
2022-12-03T23:21:29.323Z,81.72
2022-12-03T23:23:57.223Z,81.80
2022-12-03T23:26:29.529Z,82.64
2022-12-03T23:28:56.906Z,82.35
2022-12-03T23:31:31.869Z,82.36
2022-12-03T23:33:59.520Z,81.98
2022-12-03T23:36:30.502Z,81.93
2022-12-03T23:38:57.432Z,81.83
2022-12-03T23:41:25.053Z,82.03
2022-12-03T23:43:52.390Z,81.79
2022-12-03T23:46:22.126Z,82.11
2022-12-03T23:48:49.152Z,82.13
2022-12-03T23:51:21.889Z,82.15
2022-12-03T23:53:50.716Z,81.99
2022-12-03T23:56:21.983Z,82.39
2022-12-03T23:58:49.162Z,81.88
